createdAt,value
2023-04-02T00:01:01.507Z,6.10
2023-04-02T00:03:42.461Z,6.07
2023-04-02T00:06:32.736Z,6.05
2023-04-02T00:09:15.779Z,6.02
2023-04-02T00:11:48.554Z,5.98
2023-04-02T00:14:29.171Z,5.99
2023-04-02T00:16:59.764Z,5.97
2023-04-02T00:19:42.729Z,5.91
2023-04-02T00:22:20.398Z,5.86
2023-04-02T00:24:52.607Z,5.89
2023-04-02T00:27:20.994Z,5.84
2023-04-02T00:29:56.246Z,5.81
2023-04-02T00:32:33.104Z,5.78
2023-04-02T00:35:01.232Z,5.79
2023-04-02T00:37:38.990Z,5.79
2023-04-02T00:40:19.651Z,5.76
2023-04-02T00:42:50.011Z,5.76
2023-04-02T00:45:33.341Z,5.74
2023-04-02T00:48:24.902Z,5.74
2023-04-02T00:50:55.003Z,5.72
2023-04-02T00:53:29.640Z,5.71
2023-04-02T00:55:59.218Z,5.75
2023-04-02T00:58:31.824Z,5.68
2023-04-02T01:01:00.280Z,5.65
2023-04-02T01:03:36.518Z,5.68
2023-04-02T01:06:11.432Z,5.67
2023-04-02T01:09:01.906Z,5.68
2023-04-02T01:11:34.719Z,5.75
2023-04-02T01:14:37.398Z,5.79
2023-04-02T01:17:42.918Z,5.76
2023-04-02T01:20:32.314Z,5.74
2023-04-02T01:23:11.454Z,5.68
2023-04-02T01:25:38.180Z,5.62
2023-04-02T01:28:19.697Z,5.57
2023-04-02T01:30:56.488Z,5.56
2023-04-02T01:33:34.962Z,5.49
2023-04-02T01:36:35.745Z,5.47
2023-04-02T01:39:23.702Z,5.44
2023-04-02T01:42:11.351Z,5.43
2023-04-02T01:44:50.826Z,5.43
2023-04-02T01:47:25.532Z,5.44
2023-04-02T01:50:21.006Z,5.40
2023-04-02T01:52:56.698Z,5.35
2023-04-02T01:55:41.853Z,5.34
2023-04-02T01:58:14.097Z,5.34
2023-04-02T02:01:06.212Z,5.32
2023-04-02T02:03:35.468Z,5.32
2023-04-02T02:06:06.565Z,5.30
2023-04-02T02:08:59.654Z,5.30
2023-04-02T02:11:30.778Z,5.32
2023-04-02T02:14:12.021Z,5.28
2023-04-02T02:16:42.138Z,5.25
2023-04-02T02:19:36.762Z,5.20
2023-04-02T02:22:32.421Z,5.18
2023-04-02T02:25:05.541Z,5.19
2023-04-02T02:27:47.764Z,5.16
2023-04-02T02:30:26.965Z,5.20
2023-04-02T02:33:15.276Z,5.24
2023-04-02T02:35:55.327Z,5.22
2023-04-02T02:38:48.640Z,5.19
2023-04-02T02:41:44.880Z,5.19
2023-04-02T02:44:25.843Z,5.16
2023-04-02T02:47:32.236Z,5.15
2023-04-02T02:50:26.569Z,5.11
2023-04-02T02:52:58.782Z,5.11
2023-04-02T02:55:40.418Z,5.07
2023-04-02T02:58:27.518Z,5.05
2023-04-02T03:01:06.293Z,5.03
2023-04-02T03:03:37.768Z,5.01
2023-04-02T03:06:16.710Z,4.98
2023-04-02T03:09:03.215Z,4.98
2023-04-02T03:12:23.780Z,5.00
2023-04-02T03:15:13.618Z,4.99
2023-04-02T03:18:06.537Z,4.98
2023-04-02T03:20:40.408Z,4.94
2023-04-02T03:23:34.888Z,4.95
2023-04-02T03:26:32.713Z,4.94
2023-04-02T03:29:08.593Z,4.90
2023-04-02T03:31:42.083Z,4.84
2023-04-02T03:34:17.914Z,4.79
2023-04-02T03:37:24.000Z,4.77
2023-04-02T03:40:21.056Z,4.72
2023-04-02T03:43:13.027Z,4.68
2023-04-02T03:45:47.295Z,4.67
2023-04-02T03:48:36.897Z,4.64
2023-04-02T03:51:12.450Z,4.68
2023-04-02T03:53:39.620Z,4.70
2023-04-02T03:56:07.731Z,4.72
2023-04-02T03:58:44.247Z,4.72
2023-04-02T04:01:24.376Z,4.71
2023-04-02T04:03:55.833Z,4.73
2023-04-02T04:06:33.315Z,4.74
2023-04-02T04:09:09.185Z,4.68
2023-04-02T04:11:44.453Z,4.69
2023-04-02T04:14:37.326Z,4.66
2023-04-02T04:17:24.788Z,4.66
2023-04-02T04:20:17.624Z,4.68
2023-04-02T04:22:44.637Z,4.63
2023-04-02T04:25:30.031Z,4.61
2023-04-02T04:28:22.250Z,4.58
2023-04-02T04:31:10.964Z,4.57
2023-04-02T04:33:50.510Z,4.56
2023-04-02T04:36:32.106Z,4.45
2023-04-02T04:39:17.610Z,4.41
2023-04-02T04:41:54.984Z,4.37
2023-04-02T04:44:44.365Z,4.34
2023-04-02T04:47:24.117Z,4.31
2023-04-02T04:50:03.999Z,4.29
2023-04-02T04:52:42.566Z,4.27
2023-04-02T04:55:37.111Z,4.25
2023-04-02T04:58:31.685Z,4.24
2023-04-02T05:01:38.481Z,4.22
2023-04-02T05:04:21.005Z,4.18
2023-04-02T05:07:25.944Z,4.19
2023-04-02T05:10:08.319Z,4.20
2023-04-02T05:12:57.172Z,4.19
2023-04-02T05:15:40.137Z,4.22
2023-04-02T05:18:23.205Z,4.22
2023-04-02T05:20:57.884Z,4.21
2023-04-02T05:23:38.318Z,4.23
2023-04-02T05:26:29.880Z,4.23
2023-04-02T05:29:22.160Z,4.21
2023-04-02T05:31:57.711Z,4.20
2023-04-02T05:34:32.102Z,4.16
2023-04-02T05:36:59.578Z,4.18
2023-04-02T05:39:27.910Z,4.16
2023-04-02T05:42:14.558Z,4.18
2023-04-02T05:45:35.086Z,4.18
2023-04-02T05:48:17.738Z,4.16
2023-04-02T05:50:53.043Z,4.10
2023-04-02T05:53:36.579Z,4.06
2023-04-02T05:56:20.391Z,4.02
2023-04-02T05:59:00.820Z,4.00
2023-04-02T06:01:49.457Z,4.01
2023-04-02T06:04:35.691Z,3.95
2023-04-02T06:07:23.219Z,3.91
2023-04-02T06:10:05.846Z,3.91
2023-04-02T06:12:52.669Z,3.85
2023-04-02T06:15:24.270Z,3.83
2023-04-02T06:18:14.563Z,3.82
2023-04-02T06:20:42.884Z,3.78
2023-04-02T06:23:20.840Z,3.71
2023-04-02T06:26:01.809Z,3.69
2023-04-02T06:28:48.547Z,3.67
2023-04-02T06:31:42.529Z,3.70
2023-04-02T06:34:22.361Z,3.66
2023-04-02T06:37:23.492Z,3.66
2023-04-02T06:39:58.757Z,3.61
2023-04-02T06:42:41.407Z,3.60
2023-04-02T06:45:42.154Z,3.72
2023-04-02T06:48:37.192Z,3.70
2023-04-02T06:51:13.002Z,3.68
2023-04-02T06:53:48.438Z,3.62
2023-04-02T06:56:46.734Z,3.59
2023-04-02T06:59:20.302Z,3.54
2023-04-02T07:01:57.447Z,3.54
2023-04-02T07:04:26.125Z,3.55
2023-04-02T07:06:56.844Z,3.56
2023-04-02T07:09:26.760Z,3.57
2023-04-02T07:11:59.703Z,3.62
2023-04-02T07:14:26.658Z,3.68
2023-04-02T07:16:53.487Z,3.73
2023-04-02T07:19:23.003Z,3.81
2023-04-02T07:21:53.870Z,3.77
2023-04-02T07:24:25.090Z,3.83
2023-04-02T07:26:54.645Z,3.85
2023-04-02T07:29:21.666Z,3.85
2023-04-02T07:31:48.641Z,3.81
2023-04-02T07:34:18.181Z,3.81
2023-04-02T07:36:45.066Z,3.79
2023-04-02T07:39:12.339Z,3.73
2023-04-02T07:41:58.956Z,3.72
2023-04-02T07:44:25.762Z,3.68
2023-04-02T07:46:52.772Z,3.70
2023-04-02T07:49:19.783Z,3.74
2023-04-02T07:51:47.467Z,3.77
2023-04-02T07:54:14.289Z,3.82
2023-04-02T07:56:41.268Z,3.87
2023-04-02T07:59:08.242Z,3.83
2023-04-02T08:01:35.571Z,3.83
2023-04-02T08:04:05.357Z,3.89
2023-04-02T08:06:32.234Z,3.95
2023-04-02T08:08:59.423Z,3.92
2023-04-02T08:11:26.355Z,3.90
2023-04-02T08:13:53.179Z,3.88
2023-04-02T08:16:20.084Z,3.85
2023-04-02T08:18:47.759Z,3.93
2023-04-02T08:21:16.699Z,3.91
2023-04-02T08:23:43.905Z,3.90
2023-04-02T08:26:11.186Z,3.92
2023-04-02T08:28:38.143Z,3.97
2023-04-02T08:31:05.152Z,4.02
2023-04-02T08:33:32.625Z,4.10
2023-04-02T08:35:59.541Z,4.16
2023-04-02T08:38:26.541Z,4.16
2023-04-02T08:40:59.761Z,4.20
2023-04-02T08:44:05.467Z,4.17
2023-04-02T08:46:52.247Z,4.27
2023-04-02T08:49:31.226Z,4.24
2023-04-02T08:51:58.862Z,4.18
2023-04-02T08:54:31.388Z,4.20
2023-04-02T08:57:19.464Z,4.17
2023-04-02T08:59:47.977Z,4.17
2023-04-02T09:02:30.036Z,4.21
2023-04-02T09:05:03.426Z,4.20
2023-04-02T09:07:33.227Z,4.27
2023-04-02T09:10:01.054Z,4.28
2023-04-02T09:12:31.848Z,4.32
2023-04-02T09:15:24.600Z,4.22
2023-04-02T09:18:04.153Z,4.13
2023-04-02T09:20:31.166Z,4.13
2023-04-02T09:22:58.888Z,4.13
2023-04-02T09:25:32.192Z,4.13
2023-04-02T09:28:05.814Z,4.16
2023-04-02T09:30:32.536Z,4.20
2023-04-02T09:33:09.410Z,4.23
2023-04-02T09:35:57.730Z,4.23
2023-04-02T09:38:31.678Z,4.26
2023-04-02T09:41:18.612Z,4.29
2023-04-02T09:43:45.656Z,4.30
2023-04-02T09:46:26.127Z,4.30
2023-04-02T09:48:58.529Z,4.30
2023-04-02T09:51:31.785Z,4.36
2023-04-02T09:54:04.780Z,4.37
2023-04-02T09:56:41.094Z,4.38
2023-04-02T09:59:13.784Z,4.44
2023-04-02T10:01:49.836Z,4.43
2023-04-02T10:04:44.642Z,4.51
2023-04-02T10:07:43.651Z,4.57
2023-04-02T10:10:26.295Z,4.61
2023-04-02T10:13:25.622Z,4.58
2023-04-02T10:16:11.666Z,4.60
2023-04-02T10:19:13.364Z,4.59
2023-04-02T10:21:44.355Z,4.62
2023-04-02T10:24:17.386Z,4.61
2023-04-02T10:26:53.126Z,4.69
2023-04-02T10:29:39.049Z,4.75
2023-04-02T10:32:14.387Z,4.81
2023-04-02T10:34:52.106Z,4.85
2023-04-02T10:37:45.828Z,4.93
2023-04-02T10:40:34.501Z,5.10
2023-04-02T10:43:21.756Z,5.29
2023-04-02T10:46:02.893Z,5.50
2023-04-02T10:48:40.233Z,5.58
2023-04-02T10:51:43.150Z,5.59
2023-04-02T10:54:48.139Z,5.69
2023-04-02T10:57:41.518Z,5.83
2023-04-02T11:00:11.411Z,5.86
2023-04-02T11:03:08.207Z,5.86
2023-04-02T11:05:52.049Z,5.90
2023-04-02T11:08:44.467Z,5.91
2023-04-02T11:11:57.632Z,5.93
2023-04-02T11:14:28.459Z,6.02
2023-04-02T11:17:03.085Z,6.02
2023-04-02T11:19:36.015Z,5.99
2023-04-02T11:22:24.544Z,6.12
2023-04-02T11:24:53.772Z,6.27
2023-04-02T11:27:30.382Z,6.21
2023-04-02T11:30:15.945Z,6.18
2023-04-02T11:32:50.340Z,6.11
2023-04-02T11:35:32.303Z,6.10
2023-04-02T11:38:12.126Z,6.15
2023-04-02T11:40:45.982Z,6.09
2023-04-02T11:43:34.595Z,6.14
2023-04-02T11:46:28.958Z,6.20
2023-04-02T11:49:41.179Z,6.23
2023-04-02T11:52:34.288Z,6.23
2023-04-02T11:55:28.022Z,6.14
2023-04-02T11:58:06.806Z,6.06
2023-04-02T12:00:57.820Z,6.02
2023-04-02T12:03:54.879Z,5.98
2023-04-02T12:06:42.399Z,6.01
2023-04-02T12:09:44.792Z,6.11
2023-04-02T12:12:36.504Z,6.50
2023-04-02T12:15:25.485Z,6.80
2023-04-02T12:17:52.437Z,7.23
2023-04-02T12:20:27.338Z,7.72
2023-04-02T12:22:56.490Z,8.26
2023-04-02T12:25:42.121Z,8.65
2023-04-02T12:28:14.471Z,8.82
2023-04-02T12:30:42.098Z,8.85
2023-04-02T12:33:33.650Z,9.16
2023-04-02T12:36:05.199Z,9.54
2023-04-02T12:38:43.136Z,9.74
2023-04-02T12:41:24.294Z,9.81
2023-04-02T12:44:02.528Z,9.74
2023-04-02T12:46:35.536Z,9.48
2023-04-02T12:49:27.102Z,9.53
2023-04-02T12:51:54.860Z,9.78
2023-04-02T12:54:22.167Z,9.66
2023-04-02T12:56:50.363Z,9.71
2023-04-02T12:59:31.926Z,9.57
2023-04-02T13:02:02.578Z,9.76
2023-04-02T13:04:29.864Z,9.81
2023-04-02T13:06:57.014Z,9.70
2023-04-02T13:10:08.026Z,9.96
2023-04-02T13:12:41.465Z,10.40
2023-04-02T13:15:27.204Z,10.44
2023-04-02T13:18:13.445Z,10.87
2023-04-02T13:20:43.089Z,11.12
2023-04-02T13:23:31.422Z,11.06
2023-04-02T13:26:08.893Z,11.00
2023-04-02T13:28:36.071Z,11.01
2023-04-02T13:31:03.021Z,11.17
2023-04-02T13:33:29.967Z,11.37
2023-04-02T13:35:56.837Z,11.66
2023-04-02T13:38:23.747Z,11.73
2023-04-02T13:40:51.461Z,11.75
2023-04-02T13:43:20.672Z,11.85
2023-04-02T13:45:54.392Z,11.87
2023-04-02T13:48:24.595Z,12.19
2023-04-02T13:50:52.924Z,12.41
2023-04-02T13:53:32.997Z,12.54
2023-04-02T13:55:59.842Z,12.56
2023-04-02T13:58:27.095Z,12.66
2023-04-02T14:00:54.010Z,13.02
2023-04-02T14:03:22.791Z,13.28
2023-04-02T14:06:41.061Z,13.23
2023-04-02T14:09:39.728Z,13.02
2023-04-02T14:12:39.075Z,13.13
2023-04-02T14:15:38.471Z,13.25
2023-04-02T14:19:00.716Z,13.29
2023-04-02T14:21:51.791Z,13.20
2023-04-02T14:24:46.610Z,13.18
2023-04-02T14:27:44.939Z,13.37
2023-04-02T14:30:21.920Z,13.50
2023-04-02T14:33:06.859Z,13.51
2023-04-02T14:35:47.328Z,13.42
2023-04-02T14:38:43.283Z,13.32
2023-04-02T14:41:46.085Z,13.32
2023-04-02T14:44:13.407Z,13.27
2023-04-02T14:46:41.755Z,13.22
2023-04-02T14:49:31.650Z,13.16
2023-04-02T14:52:11.594Z,13.16
2023-04-02T14:54:54.567Z,13.29
2023-04-02T14:57:30.560Z,13.46
2023-04-02T15:00:05.162Z,13.37
2023-04-02T15:02:47.217Z,13.32
2023-04-02T15:05:43.380Z,13.47
2023-04-02T15:08:52.384Z,13.67
2023-04-02T15:11:34.099Z,13.55
2023-04-02T15:14:17.738Z,13.41
2023-04-02T15:16:46.748Z,13.17
2023-04-02T15:19:19.116Z,13.04
2023-04-02T15:21:59.973Z,13.23
2023-04-02T15:24:49.717Z,13.25
2023-04-02T15:27:56.260Z,13.13
2023-04-02T15:30:30.123Z,13.01
2023-04-02T15:33:23.079Z,12.89
2023-04-02T15:36:04.779Z,13.12
2023-04-02T15:38:44.600Z,13.38
2023-04-02T15:41:26.578Z,13.34
2023-04-02T15:44:09.942Z,13.05
2023-04-02T15:47:06.894Z,12.93
2023-04-02T15:50:01.354Z,12.88
2023-04-02T15:52:58.986Z,13.15
2023-04-02T15:55:42.780Z,13.13
2023-04-02T15:58:35.569Z,12.93
2023-04-02T16:01:37.365Z,12.75
2023-04-02T16:04:38.880Z,12.76
2023-04-02T16:07:44.812Z,12.80
2023-04-02T16:10:40.945Z,12.58
2023-04-02T16:13:37.404Z,12.56
2023-04-02T16:16:26.954Z,12.46
2023-04-02T16:19:00.180Z,12.51
2023-04-02T16:21:33.612Z,12.51
2023-04-02T16:24:00.572Z,12.44
2023-04-02T16:26:59.680Z,12.39
2023-04-02T16:29:47.093Z,12.09
2023-04-02T16:32:47.182Z,11.95
2023-04-02T16:35:50.880Z,11.84
2023-04-02T16:38:45.734Z,11.64
2023-04-02T16:41:23.771Z,11.57
2023-04-02T16:44:19.231Z,11.54
2023-04-02T16:47:12.088Z,11.31
2023-04-02T16:49:54.906Z,11.32
2023-04-02T16:52:57.916Z,11.17
2023-04-02T16:55:52.144Z,11.28
2023-04-02T16:58:57.912Z,11.21
2023-04-02T17:01:45.594Z,11.12
2023-04-02T17:04:36.523Z,11.09
2023-04-02T17:07:55.383Z,11.16
2023-04-02T17:10:58.188Z,11.06
2023-04-02T17:13:46.392Z,10.63
2023-04-02T17:16:37.038Z,10.23
2023-04-02T17:19:11.630Z,9.84
2023-04-02T17:21:44.019Z,9.66
2023-04-02T17:24:14.308Z,9.54
2023-04-02T17:26:48.162Z,9.32
2023-04-02T17:29:27.270Z,9.05
2023-04-02T17:32:01.745Z,8.80
2023-04-02T17:34:29.481Z,8.64
2023-04-02T17:37:11.203Z,8.48
2023-04-02T17:39:57.697Z,8.30
2023-04-02T17:42:46.272Z,8.18
2023-04-02T17:45:32.588Z,8.08
2023-04-02T17:48:30.610Z,7.97
2023-04-02T17:51:21.766Z,7.88
2023-04-02T17:53:57.604Z,7.76
2023-04-02T17:56:54.708Z,7.67
2023-04-02T17:59:55.465Z,7.58
2023-04-02T18:02:56.296Z,7.46
2023-04-02T18:05:51.093Z,7.40
2023-04-02T18:08:37.487Z,7.33
2023-04-02T18:11:28.318Z,7.27
2023-04-02T18:14:11.283Z,7.20
2023-04-02T18:17:12.534Z,7.12
2023-04-02T18:20:13.582Z,7.05
2023-04-02T18:23:04.875Z,6.99
2023-04-02T18:25:49.509Z,6.91
2023-04-02T18:28:34.190Z,6.85
2023-04-02T18:31:06.594Z,6.80
2023-04-02T18:33:51.964Z,6.74
2023-04-02T18:36:33.924Z,6.69
2023-04-02T18:39:47.993Z,6.63
2023-04-02T18:42:58.820Z,6.56
2023-04-02T18:45:54.378Z,6.49
2023-04-02T18:49:12.568Z,6.43
2023-04-02T18:51:40.293Z,6.37
2023-04-02T18:54:29.765Z,6.30
2023-04-02T18:56:56.625Z,6.25
2023-04-02T18:59:49.296Z,6.20
2023-04-02T19:02:43.057Z,6.15
2023-04-02T19:05:21.413Z,6.09
2023-04-02T19:07:54.362Z,6.04
2023-04-02T19:10:33.110Z,6.01
2023-04-02T19:13:00.432Z,5.97
2023-04-02T19:15:44.257Z,5.92
2023-04-02T19:18:36.569Z,5.90
2023-04-02T19:21:35.830Z,5.87
2023-04-02T19:24:26.230Z,5.85
2023-04-02T19:27:04.959Z,5.82
2023-04-02T19:30:21.595Z,5.78
2023-04-02T19:32:51.349Z,5.75
2023-04-02T19:35:36.127Z,5.72
2023-04-02T19:38:15.203Z,5.69
2023-04-02T19:40:51.543Z,5.65
2023-04-02T19:43:18.387Z,5.61
2023-04-02T19:45:49.120Z,5.59
2023-04-02T19:48:21.749Z,5.54
2023-04-02T19:50:49.537Z,5.49
2023-04-02T19:53:17.565Z,5.45
2023-04-02T19:55:45.528Z,5.42
2023-04-02T19:58:34.791Z,5.36
2023-04-02T20:01:02.479Z,5.31
2023-04-02T20:03:30.399Z,5.27
2023-04-02T20:05:59.500Z,5.23
2023-04-02T20:08:28.041Z,5.18
2023-04-02T20:10:58.473Z,5.14
2023-04-02T20:13:25.470Z,5.10
2023-04-02T20:15:52.414Z,5.05
2023-04-02T20:18:20.509Z,5.00
2023-04-02T20:20:49.262Z,4.96
2023-04-02T20:23:16.993Z,4.90
2023-04-02T20:25:54.943Z,4.87
2023-04-02T20:28:24.522Z,4.81
2023-04-02T20:30:52.222Z,4.78
2023-04-02T20:33:22.572Z,4.74
2023-04-02T20:35:51.837Z,4.70
2023-04-02T20:38:19.360Z,4.64
2023-04-02T20:40:52.699Z,4.58
2023-04-02T20:43:19.614Z,4.55
2023-04-02T20:45:57.326Z,4.53
2023-04-02T20:48:27.368Z,4.50
2023-04-02T20:50:54.452Z,4.46
2023-04-02T20:53:21.426Z,4.41
2023-04-02T20:55:48.972Z,4.37
2023-04-02T20:58:18.095Z,4.37
2023-04-02T21:00:45.824Z,4.34
2023-04-02T21:03:12.772Z,4.29
2023-04-02T21:05:47.802Z,4.27
2023-04-02T21:08:14.968Z,4.22
2023-04-02T21:10:41.835Z,4.17
2023-04-02T21:13:08.646Z,4.18
2023-04-02T21:15:35.797Z,4.22
2023-04-02T21:18:02.731Z,4.23
2023-04-02T21:20:29.656Z,4.23
2023-04-02T21:22:56.424Z,4.22
2023-04-02T21:25:23.235Z,4.20
2023-04-02T21:27:50.244Z,4.18
2023-04-02T21:30:17.153Z,4.16
2023-04-02T21:32:44.080Z,4.12
2023-04-02T21:35:11.047Z,4.09
2023-04-02T21:37:37.846Z,4.03
2023-04-02T21:40:05.391Z,3.95
2023-04-02T21:42:32.199Z,3.83
2023-04-02T21:44:59.057Z,3.77
2023-04-02T21:47:27.739Z,3.80
2023-04-02T21:49:54.583Z,3.83
2023-04-02T21:52:21.421Z,3.91
2023-04-02T21:54:48.252Z,3.92
2023-04-02T21:57:17.824Z,3.94
2023-04-02T21:59:45.356Z,3.88
2023-04-02T22:02:12.217Z,3.80
2023-04-02T22:04:40.908Z,3.78
2023-04-02T22:07:07.775Z,3.80
2023-04-02T22:09:34.679Z,3.84
2023-04-02T22:12:02.323Z,3.89
2023-04-02T22:14:29.738Z,3.92
2023-04-02T22:16:58.779Z,3.95
2023-04-02T22:19:26.537Z,3.96
2023-04-02T22:21:53.553Z,3.93
2023-04-02T22:24:22.390Z,3.84
2023-04-02T22:26:49.611Z,3.82
2023-04-02T22:29:16.925Z,3.80
2023-04-02T22:31:43.902Z,3.77
2023-04-02T22:34:11.019Z,3.76
2023-04-02T22:36:37.930Z,3.74
2023-04-02T22:39:09.818Z,3.71
2023-04-02T22:41:36.939Z,3.69
2023-04-02T22:44:04.101Z,3.62
2023-04-02T22:46:31.494Z,3.56
2023-04-02T22:48:58.916Z,3.53
2023-04-02T22:51:27.898Z,3.42
2023-04-02T22:53:56.319Z,3.33
2023-04-02T22:56:31.766Z,3.24
2023-04-02T22:58:59.308Z,3.17
2023-04-02T23:01:34.102Z,3.11
2023-04-02T23:04:01.514Z,3.03
2023-04-02T23:06:28.773Z,2.99
2023-04-02T23:08:55.965Z,2.97
2023-04-02T23:11:27.433Z,2.96
2023-04-02T23:13:57.816Z,2.95
2023-04-02T23:16:28.224Z,2.94
2023-04-02T23:18:56.416Z,2.93
2023-04-02T23:21:24.034Z,2.90
2023-04-02T23:23:51.430Z,2.85
2023-04-02T23:26:31.319Z,2.81
2023-04-02T23:29:00.397Z,2.79
2023-04-02T23:31:28.335Z,2.76
2023-04-02T23:33:55.784Z,2.76
2023-04-02T23:36:25.477Z,2.74
2023-04-02T23:38:55.340Z,2.73
2023-04-02T23:41:25.133Z,2.73
2023-04-02T23:43:53.169Z,2.70
2023-04-02T23:46:21.079Z,2.71
2023-04-02T23:48:51.669Z,2.69
2023-04-02T23:51:19.065Z,2.69
2023-04-02T23:53:45.924Z,2.67
2023-04-02T23:56:12.737Z,2.65
2023-04-02T23:58:39.578Z,2.63
